الصفحة الرئيسية
METAR-TAF:

METAR-TAF

مطار :

Ceduna, أستراليا

دائرة عرض: 32-07-50S, خط طول: 133-42-35E, ارتفاع: 23 متر

مراقبة الطقس الحالي

تاريخ ووقت الإصدار 30 دقيقة قبل الساعة 21:00UTC
ريح 16 عقدة من الشمال
درجة الحرارة 14°درجة مئوية
الرطوبة 51%
ضغط 1015 hPa
الرؤية 10 كم أو أكثر
غيوم متفرقة على ارتفاع 12000 قدم

METAR: YCDU 252100Z AUTO 01016KT 9999 // SCT120 14/04 Q1015

زمن: 07:00 (21:30 UTC)


TAF: مفقودة

أرصاد الطقس والتوقعات من أكثر من 4000 مطار (تقارير الطقس للمطار METAR والتنبؤ بالطقس بالمطارTAF).

المحطات المتاحة هي النقط الصفراء والحمراء على الخريطة.

حرك المؤشر فوق النقطة لمعرفة اسم المحطة.

ثم انقر لمعرفة أرصاد وتوقعات الطقس.

لتغيير الخارطة: اضغط على الأزرار الخضراء مع رمز الصليب الأسود للتكبير. على الزر الأخضر مع شرطة للتصغير، أو على الأسهم الخضراء للخرائط المجاورة.


METAR-TAF: